Current Conditions
Clear
Conditions



Pressure
1023.92 (hPa) - 30.24 (inHG)
Visibility

10.0 (km) - 6.2 (miles)
Temperature
12  °C
Temperature
9  °C
Dewpoint
82  %
 Humidity
Wind Speed
2.7  m/s
6  mph
10  km/h
5  kts
Wind Direction
N
45°
E
90°
135°
S
180°
225°
W
270°
315°
 300°

West North
West
Airport Data
EBDT
Schaffen Airfield
Metar :EBDT 021925Z AUTO 30005KT 9999 NCD 12/09 Q1024 BLU
Sun 2nd October 21:25 pm
Raw Metar Info
Raw METAR is the most common format in the world for the transmission of observational weather data. It is highly standardized through the International Civil Aviation Organization (ICAO), which allows it to be understood throughout most of the world.
API Info
Data Provided by
https://www.checkwx.com/weather/EBDT

Aviation Weather providing METAR, TAF, AIRMET, SIGMET and OUTLOOK Weather Reports
© Info
CSS/SVG/PHP scripts were developed by weather34 for use in the weather34 template © 2015-2022

Guide Info provided by Metar-Wikipedia